默认 日期 大小 文件数 浏览量 最新下载 xml
a batman磁力链接相关资源由用户搜索指令自动获取,结果来源于网络,本站不存储任何资料,亦不承担任何责任,请于24小时内删除,搜索到312个磁力,用时30ms。
    {"RARBG.txt": 30, "RARBG_DO_NOT_MIRROR.exe": 99, "gush.vrcosplayx.22.10.27.batman.the.long.halloween.part.2.a.parody.nfo": 9262, "VRCosplayX_Batman_The_Long_Halloween_Pt_2_A_XXX_Parody_7K_180_180x180_3dh.mp4": 13884045222}
创建时间: 2022-11-12 21:04:11 大小:12.93 GB 文件数量:4 热度:34 最近下载:2025-08-19 21:15:02
    ... -LAPUMiA": {"Legendas": {"Legenda 3D": {"Batman.vs.Superman.A.Origem.da.Justica.2016 ... .DUAL-LAPUMiA.sub": 16971776, "Batman.vs.Superman.A.Origem.da.Justica.2016 ... .sub": 1433600}, "Legenda Normal": {"Batman.vs.Superman.A.Origem.da.Justica.2016 ...
创建时间: 2022-11-19 19:30:48 大小:10.26 GB 文件数量:7 热度:4 最近下载:2025-03-18 04:20:02
    ... . rész.mkv": 208903527, "Batman Sor20. 1x20. Batman a pincémben van.mkv ... megijedni.mkv": 204081930, "Batman Sor01. 1x01. A cica meg a karma 1. r ... ": 232725885}, "Batman S2": {"Batman Sor71. 2x06. Bane.mkv": 202086777, "Batman Sor69. 2x04. A per ...
创建时间: 2022-12-07 07:41:08 大小:16.75 GB 文件数量:169 热度:10 最近下载:2025-08-04 00:44:08
    {"Batman XXX A Porn Parody XviD": {"Your Password.txt": 307, "Your Password.url": 61, "Batman XXX A Porn Parody XviD.rar": 1888760809}}
创建时间: 2022-12-17 21:35:05 大小:1.76 GB 文件数量:3 热度:3 最近下载:2025-01-20 22:52:05
    {"Batman XXX A Porn Parody XviD": {"Your Password.txt": 316, "Your Password.url": 61, "Batman XXX A Porn Parody XviD.rar": 1888760809}}
创建时间: 2022-12-24 05:52:33 大小:1.76 GB 文件数量:3 热度:4 最近下载:2025-02-23 03:31:05
    {"Legenda": {"Batman.V.Superman.A.Origem.da.Justica.2016.Versao. ... , "nitrorips.top.png": 103848, "Batman.V.Superman.A.Origem.da.Justica.2016 ... .H265.bob_n1tro.mkv": 3447330734, "Batman.V.Superman.A.Origem.da.Justica.2016 ...
创建时间: 2022-12-30 08:50:58 大小:3.21 GB 文件数量:6 热度:6 最近下载:2025-01-25 02:14:03
    {"front.jpg": 103091, "ps-batmanxxx-a.avi": 733923328, "ps-batmanxxx-b.avi": 730187776}
创建时间: 2023-02-13 07:44:00 大小:1.36 GB 文件数量:3 热度:2 最近下载:2025-01-11 12:34:06
    {"Batman XXX A Porn Parody (2010) DVDRip Oldies.avi": 1464098816, "Batman XXX A Porn Parody (2010) DVDRip Oldies.srt": 30091}
创建时间: 2023-02-13 22:06:01 大小:1.36 GB 文件数量:2 热度:3 最近下载:2025-03-01 17:33:08
    {"Batman XXX A Porn Parody XviD": {"Your Password.txt": 309, "Your Password.url": 61, "Batman XXX A Porn Parody XviD.rar": 1888760809}}
创建时间: 2023-02-18 05:24:48 大小:1.76 GB 文件数量:3 热度:2 最近下载:2025-01-18 17:11:07
    {"VIDEO_TS": {"VIDEO_TS.BUP": 32768, "VIDEO_TS.IFO": 32768, "VIDEO_TS.VOB": 116736, "VTS_01_0.BUP": 102400, "VTS_01_0.IFO": 102400, "VTS_01_0.VOB": 140734464, "VTS_01_1.VOB": 1073565696, "VTS_01_2.VOB": 1073565696, "VTS_01_3.VOB": 1073565696, "VTS_01_4.VOB ...
创建时间: 2023-03-03 19:42:31 大小:7.85 GB 文件数量:84 热度:7 最近下载:2025-08-31 03:51:02
    {"Importante Leeme!.vbs": 213, "Descargar Películas, Series y Animes...url": 50, "Batman.La.Perdición.que.llegó.a.Ciudad.Gótica.2023.DVDrip-lat.avi": 452120286}
创建时间: 2023-03-23 09:46:18 大小:431.18 MB 文件数量:3 热度:10 最近下载:2025-09-21 05:47:03
    {"Importante Leeme!.vbs": 213, "Descargar Películas, Series y Animes...url": 50, "Batman.La.Perdición.que.llegó.a.Ciudad.Gótica.2023.WEB-DL.1080P-dual-lat.mkv": 5139632058}
创建时间: 2023-03-24 22:42:26 大小:4.79 GB 文件数量:3 热度:10 最近下载:2025-09-24 04:37:03
    {"Descargar Películas, Series y Animes Gratis....url": 50, "Batman.La.Perdicion.Que.Llego.A.Ciudad.Gotica.2023.1080p-dual-lat.mp4": 1800332610, "Batman.La.Perdicion.Que.Llego.A.Ciudad.Gotica.2023.1080p-dual-lat.srt": 77835}
创建时间: 2023-03-25 09:04:54 大小:1.68 GB 文件数量:3 热度:4 最近下载:2025-02-10 22:54:03
    {"Importante Leeme!.vbs": 213, "Descargar Películas, Series y Animes...url": 50, "Batman.La.Perdición.que.llegó.a.Ciudad.Gótica.2023.720p-dual-lat.mkv": 933382515}
创建时间: 2023-03-26 06:22:22 大小:890.14 MB 文件数量:3 热度:8 最近下载:2025-09-15 14:03:03
    {"Importante Leeme!.vbs": 213, "Descargar Películas, Series y Animes...url": 50, "Batman.La.Perdición.que.llegó.a.Ciudad.Gótica.2023.1080p-dual-lat.mkv": 2056151830}
创建时间: 2023-03-29 23:40:45 大小:1.91 GB 文件数量:3 热度:8 最近下载:2025-09-17 13:59:06
    {"1.jpg": 142718, "ɯ��@Batman XXX A Porn Parody.flv": 1871716871, "speedpluss ... .url": 127, "ɯ��@Batman XXX A Porn Parody_20100531-07084148.jpg": 195819 ...
创建时间: 2023-03-31 17:10:21 大小:1.74 GB 文件数量:6 热度:2 最近下载:2025-03-01 14:31:02
    {"BAIXAR OUTROS FILMES.url": 119, "1XBET.COM_promo_SHREK_dinheiro_livre.mp4": 22983105, "Batman - A Perdição Chegou a Gotham 2023 1080p BluRay DUAL 5.1.mkv": 2274972285}
创建时间: 2023-04-01 20:23:23 大小:2.14 GB 文件数量:3 热度:4 最近下载:2025-03-09 13:53:03
    {"LEIA-ME.txt": 988, "BLUDV.TO.url": 121, "GRUPO TELEGRAM.url": 130, "TorrentDosFilmes.SITE.url": 130, "Batman - A Perdição Chegou a Gotham 2023 BluRay 1080p x264 DUAL 5.1.mkv": 2274972285}
创建时间: 2023-04-02 07:18:03 大小:2.12 GB 文件数量:5 热度:3 最近下载:2025-03-09 14:01:59
    {"batman-a-perdicao-chegou-a-gotham-2023-1080p-blu-ray-dual-5.1_meta.xml": 1032, "Batman - A Perdição Chegou a Gotham 2023 1080p BluRay DUAL 5.1.torrent": 88155, "batman-a-perdicao-chegou-a-gotham-2023-1080p-blu-ray-dual-5.1_meta.sqlite": 20480}
创建时间: 2023-04-15 17:12:57 大小:107.1 KB 文件数量:3 热度:3 最近下载:2025-03-09 14:21:02
    {"Batman XXX A Porn Parody XviD.avi": 1892440526, "草榴社區主論壇 邀请码.url": 248, "_____padding_file_0_如果您看到此文件,请升级到BitComet(比特彗星)0.85或以上版本____": 239154}
创建时间: 2023-04-20 22:25:30 大小:1.76 GB 文件数量:3 热度:2 最近下载:2025-01-12 02:01:39